AirNav   TITAN Aviation Fuels
 
 1779 users online  

39T Tripp Creek Airport
St Johns, Michigan, USA

GOING TO ST JOHNS?


FAA INFORMATION EFFECTIVE 11 AUGUST 2022

Location

FAA Identifier: 39T
Lat/Long: 43-03-53.1100N 084-29-20.9460W
43-03.885167N 084-29.349100W
43.0647528,-84.4891517
(estimated)
Elevation: 717 ft. / 218.5 m (surveyed)
Variation: 05W (1985)
From city: 6 miles NE of ST JOHNS, MI
Time zone: UTC -4 (UTC -5 during Standard Time)
Zip code: 48831

Airport Operations

Airport use: Open to the public
Activation date: 11/1977
Control tower: no
ARTCC: CLEVELAND CENTER
FSS: LANSING FLIGHT SERVICE STATION
NOTAMs facility: LAN (NOTAM-D service available)
Attendance: IREG
Wind indicator: yes
Segmented circle: no

Airport Communications

CTAF: 122.9
WX AWOS-3 at RNP (16 nm E): 118.025 (989-729-2967)
WX ASOS at LAN (18 nm S): PHONE 517-908-8494
WX AWOS-3P at AMN (18 nm NW): 124.175 (989-463-3433)

Nearby radio navigation aids

VOR radial/distance  VOR name  Freq  Var
FNTr286/33.1FLINT VORTAC116.9006W
MBSr216/33.3SAGINAW VOR/DME112.9003W
MOPr167/35.2MOUNT PLEASANT VOR/DME110.6005W

Airport Services

Parking: tiedowns
Airframe service: NONE
Powerplant service: NONE

Runway Information

Runway 9/27

Dimensions: 2509 x 50 ft. / 765 x 15 m
Surface: turf, in good condition
Runway edge markings: RY 09 /27 & DSPLCD THLDS MKD WITH 3 FT YELLOW CONES.
RUNWAY 9  RUNWAY 27
Traffic pattern: leftleft
Displaced threshold: 280 ft.425 ft.
Obstructions: 15 ft. road, 20 ft. from runway18 ft. road, 65 ft. from runway, 3:1 slope to clear

Airport Ownership and Management from official FAA records

Ownership: Privately-owned
Owner: ROBERT G PARKER
5153 N CHANDLER RD
ELSIE, MI 48831-9772
Phone 989-862-4413
Manager: ROBERT G PARKER
5153 N CHANDLER RD
ELSIE, MI 48831-9772
Phone 989-862-4413

Airport Operational Statistics

Aircraft based on the field: 5
Single engine airplanes: 5
    
Aircraft operations: avg 21/month *
50% transient general aviation
50% local general aviation
* for 12-month period ending 31 December 2017

Additional Remarks

SNOW REMOVAL IREG - CALL AMGR TO CONFIRM ARPT COND.
DEER ON & INVOF ARPT.
FOR CD CTC GREAT LAKES APCH AT 269-459-3345, WHEN APCH CLSD CTC CLEVELAND ARTCC AT 440-774-0224/0490.

Instrument Procedures

There are no published instrument procedures at 39T.

Some nearby airports with instrument procedures:

KRNP - Owosso Community Airport (16 nm E)
KLAN - Capital Region International Airport (18 nm S)
KAMN - Gratiot Community Airport (18 nm NW)
4D0 - Abrams Municipal Airport (20 nm SW)
Y70 - Ionia County Airport (26 nm W)
 
Loc | Ops | Rwys | IFR | FBO | Links
Com | Nav | Svcs | Stats | Notes
Area around 39T (Tripp Creek Airport)
 
Road maps at: MapQuest Bing Google
 
Aerial photo
WARNING: Photo may not be current or correct
Aerial photo of 39T (Tripp Creek Airport)
Photo by Ren Wall

Do you have a better or more recent aerial photo of Tripp Creek Airport that you would like to share? If so, please send us your photo.

 
Sectional chart

 
Airport distance calculator
Flying to Tripp Creek Airport? Find the distance to fly.

From to 39T

Sunrise and sunset
Times for 18-Aug-2022
 Local
(UTC-4)
 Zulu
(UTC)
Morning civil twilight06:1810:18
Sunrise06:4810:48
Sunset20:3600:36
Evening civil twilight21:0601:06

Current date and time
Zulu (UTC)  18-Aug-2022 20:30:44
Local (UTC-4)  18-Aug-2022 16:30:44
 
METAR
KRNP 
16nm E 
182015Z AUTO 26006KT 10SM SCT055 27/15 A2997 RMK AO2 T02710147
KAMN 
17nm NW 
182015Z AUTO 21007KT 190V250 10SM BKN060 28/09 A2997 RMK AO2 T02840089
KLAN 
17nm S 
181953Z AUTO 25007KT 10SM FEW050 BKN070 BKN090 28/14 A2999 RMK AO2 SLP151 T02780139
TAF
KLAN 
17nm S 
181740Z 1818/1918 28004KT P6SM SCT050 FM190200 15003KT P6SM SKC FM191500 22008KT P6SM SCT060 SCT120
NOTAMs
Click for the latest NOTAMs
NOTAMs are issued by the DoD/FAA and will open in a separate window not controlled by AirNav.

 

 
 

Would you like to see your business listed on this page?

 If your business provides an interesting product or service to pilots, flight crews, aircraft, or users of the Tripp Creek Airport, you should consider listing it here.  To start the listing process, click on the button below
 
Add a business
 

Other Pages about Tripp Creek Airport

Page from the Michigan Airport Directory (PDF)
 
Update a link
 
Copyright © AirNav, LLC. All rights reserved. Privacy Policy  Contact